createdAt,value
2023-03-13T00:00:36.932Z,85.33
2023-03-13T00:01:43.842Z,85.88
2023-03-13T00:02:46.810Z,86.24
2023-03-13T00:03:49.421Z,86.32
2023-03-13T00:04:51.523Z,85.91
2023-03-13T00:05:58.427Z,85.82
2023-03-13T00:07:01.400Z,85.66
2023-03-13T00:08:03.864Z,85.80
2023-03-13T00:09:09.449Z,85.92
2023-03-13T00:10:11.669Z,86.21
2023-03-13T00:11:14.741Z,85.79
2023-03-13T00:12:16.654Z,85.43
2023-03-13T00:13:18.519Z,85.36
2023-03-13T00:14:20.424Z,85.62
2023-03-13T00:15:22.460Z,86.17
2023-03-13T00:16:26.242Z,86.64
2023-03-13T00:17:28.318Z,86.35
2023-03-13T00:18:30.468Z,86.76
2023-03-13T00:19:32.335Z,86.42
2023-03-13T00:20:34.532Z,86.39
2023-03-13T00:21:38.252Z,86.45
2023-03-13T00:22:40.237Z,86.57
2023-03-13T00:23:43.316Z,86.61
2023-03-13T00:24:46.293Z,86.84
2023-03-13T00:25:48.280Z,86.56
2023-03-13T00:26:50.366Z,86.69
2023-03-13T00:27:52.256Z,87.23
2023-03-13T00:28:54.607Z,87.20
2023-03-13T00:29:57.706Z,86.81
2023-03-13T00:31:21.448Z,87.26
2023-03-13T00:32:23.734Z,86.98
2023-03-13T00:33:25.739Z,86.79
2023-03-13T00:34:27.629Z,86.58
2023-03-13T00:35:29.672Z,86.31
2023-03-13T00:36:34.806Z,86.27
2023-03-13T00:37:37.490Z,86.21
2023-03-13T00:38:39.806Z,86.63
2023-03-13T00:39:42.052Z,86.67
2023-03-13T00:40:44.050Z,86.59
2023-03-13T00:41:46.194Z,86.27
2023-03-13T00:42:48.473Z,86.29
2023-03-13T00:43:51.592Z,86.29
2023-03-13T00:44:53.506Z,86.23
2023-03-13T00:45:55.681Z,86.44
2023-03-13T00:46:58.034Z,86.38
2023-03-13T00:47:59.987Z,86.45
2023-03-13T00:49:03.137Z,86.29
2023-03-13T00:50:06.393Z,86.25
2023-03-13T00:51:09.119Z,86.09
2023-03-13T00:52:11.180Z,85.88
2023-03-13T00:53:13.154Z,85.80
2023-03-13T00:54:15.077Z,85.77
2023-03-13T00:55:17.167Z,86.07
2023-03-13T00:56:21.590Z,86.07
2023-03-13T00:57:23.600Z,86.42
2023-03-13T00:58:27.866Z,86.57
2023-03-13T00:59:32.557Z,86.53
2023-03-13T01:00:34.692Z,86.70
2023-03-13T01:01:36.571Z,86.70
2023-03-13T01:02:43.131Z,86.82
2023-03-13T01:03:48.911Z,86.67
2023-03-13T01:04:51.056Z,86.41
2023-03-13T01:05:58.345Z,86.14
2023-03-13T01:07:00.849Z,86.00
2023-03-13T01:08:03.142Z,86.21
2023-03-13T01:09:07.554Z,86.38
2023-03-13T01:10:11.799Z,86.23
2023-03-13T01:11:21.379Z,86.31
2023-03-13T01:12:23.452Z,86.18
2023-03-13T01:13:26.034Z,85.90
2023-03-13T01:14:28.565Z,85.86
2023-03-13T01:15:33.500Z,85.72
2023-03-13T01:16:36.598Z,85.52
2023-03-13T01:17:38.621Z,85.42
2023-03-13T01:18:44.392Z,85.47
2023-03-13T01:19:46.421Z,85.87
2023-03-13T01:20:48.873Z,85.46
2023-03-13T01:21:51.662Z,85.20
2023-03-13T01:22:53.560Z,85.23
2023-03-13T01:23:57.616Z,85.03
2023-03-13T01:24:59.665Z,84.96
2023-03-13T01:26:07.161Z,84.78
2023-03-13T01:27:09.199Z,84.67
2023-03-13T01:28:11.182Z,84.46
2023-03-13T01:29:13.929Z,84.38
2023-03-13T01:30:17.208Z,84.06
2023-03-13T01:31:24.729Z,84.12
2023-03-13T01:32:26.876Z,84.23
2023-03-13T01:33:28.798Z,84.29
2023-03-13T01:34:30.669Z,84.33
2023-03-13T01:35:35.594Z,84.35
2023-03-13T01:36:37.986Z,84.04
2023-03-13T01:37:40.082Z,83.97
2023-03-13T01:38:43.126Z,83.80
2023-03-13T01:39:45.003Z,83.73
2023-03-13T01:40:48.660Z,83.43
2023-03-13T01:41:50.673Z,83.17
2023-03-13T01:42:55.046Z,83.05
2023-03-13T01:43:59.175Z,83.12
2023-03-13T01:45:01.758Z,83.03
2023-03-13T01:46:08.991Z,82.75
2023-03-13T01:47:11.132Z,82.59
2023-03-13T01:48:13.351Z,82.27
2023-03-13T01:49:28.320Z,82.02
2023-03-13T01:50:30.920Z,81.97
2023-03-13T01:51:45.586Z,81.92
2023-03-13T01:52:47.911Z,81.76
2023-03-13T01:53:56.134Z,81.71
2023-03-13T01:56:19.294Z,82.06
2023-03-13T01:57:36.757Z,81.88
2023-03-13T01:58:39.005Z,81.68
2023-03-13T01:59:50.763Z,81.84
2023-03-13T02:00:54.802Z,81.56
2023-03-13T02:02:00.528Z,81.24
2023-03-13T02:03:06.508Z,81.36
2023-03-13T02:04:09.181Z,81.34
2023-03-13T02:05:13.673Z,81.20
2023-03-13T02:06:17.586Z,81.00
2023-03-13T02:07:29.171Z,80.71
2023-03-13T02:08:35.503Z,80.44
2023-03-13T02:09:41.171Z,80.22
2023-03-13T02:10:46.947Z,80.17
2023-03-13T02:12:04.496Z,80.26
2023-03-13T02:13:06.593Z,80.16
2023-03-13T02:14:09.545Z,80.09
2023-03-13T02:15:15.309Z,79.77
2023-03-13T02:16:19.922Z,79.63
2023-03-13T02:17:27.243Z,79.43
2023-03-13T02:18:30.018Z,79.33
2023-03-13T02:19:46.964Z,79.31
2023-03-13T02:20:51.910Z,79.71
2023-03-13T02:22:09.772Z,79.46
2023-03-13T02:23:20.210Z,79.21
2023-03-13T02:24:28.905Z,78.94
2023-03-13T02:25:38.250Z,79.07
2023-03-13T02:26:40.843Z,79.17
2023-03-13T02:27:45.456Z,79.57
2023-03-13T02:28:47.630Z,79.30
2023-03-13T02:29:51.386Z,78.83
2023-03-13T02:30:55.517Z,78.54
2023-03-13T02:31:58.742Z,78.71
2023-03-13T02:33:04.100Z,78.53
2023-03-13T02:34:06.663Z,78.37
2023-03-13T02:35:12.544Z,78.27
2023-03-13T02:36:17.200Z,78.16
2023-03-13T02:37:21.212Z,78.17
2023-03-13T02:38:26.351Z,78.27
2023-03-13T02:39:31.015Z,78.18
2023-03-13T02:40:39.800Z,78.19
2023-03-13T02:41:43.831Z,78.08
2023-03-13T02:42:49.558Z,78.25
2023-03-13T02:43:51.948Z,77.98
2023-03-13T02:44:54.241Z,78.12
2023-03-13T02:46:05.947Z,78.08
2023-03-13T02:47:08.204Z,78.28
2023-03-13T02:48:10.183Z,78.01
2023-03-13T02:49:28.094Z,77.93
2023-03-13T02:50:33.443Z,77.96
2023-03-13T02:51:39.135Z,78.16
2023-03-13T02:52:44.789Z,78.31
2023-03-13T02:53:53.176Z,78.49
2023-03-13T02:54:58.900Z,77.91
2023-03-13T02:56:02.548Z,78.03
2023-03-13T02:57:05.662Z,77.92
2023-03-13T02:58:10.048Z,78.09
2023-03-13T02:59:12.083Z,78.03
2023-03-13T03:00:15.785Z,78.24
2023-03-13T03:01:18.027Z,78.38
2023-03-13T03:02:21.241Z,78.36
2023-03-13T03:03:23.184Z,78.35
2023-03-13T03:04:27.170Z,78.54
2023-03-13T03:05:29.183Z,78.50
2023-03-13T03:06:31.509Z,78.51
2023-03-13T03:07:33.648Z,78.27
2023-03-13T03:08:35.806Z,78.46
2023-03-13T03:09:37.669Z,78.47
2023-03-13T03:10:40.040Z,78.57
2023-03-13T03:11:44.440Z,78.92
2023-03-13T03:12:46.394Z,79.08
2023-03-13T03:13:48.504Z,78.92
2023-03-13T03:14:50.484Z,78.86
2023-03-13T03:15:52.599Z,78.86
2023-03-13T03:16:54.953Z,78.88
2023-03-13T03:17:58.067Z,79.13
2023-03-13T03:19:00.236Z,79.95
2023-03-13T03:20:03.156Z,80.23
2023-03-13T03:21:06.958Z,80.32
2023-03-13T03:22:09.887Z,80.23
2023-03-13T03:23:12.015Z,80.13
2023-03-13T03:24:13.900Z,79.76
2023-03-13T03:25:16.988Z,79.34
2023-03-13T03:26:19.467Z,79.53
2023-03-13T03:27:21.328Z,79.45
2023-03-13T03:28:23.231Z,79.50
2023-03-13T03:29:25.689Z,79.92
2023-03-13T03:30:27.799Z,79.90
2023-03-13T03:31:31.082Z,79.91
2023-03-13T03:32:33.181Z,79.81
2023-03-13T03:33:36.347Z,79.88
2023-03-13T03:34:38.583Z,80.15
2023-03-13T03:35:40.552Z,81.53
2023-03-13T03:36:42.588Z,82.37
2023-03-13T03:37:44.464Z,82.13
2023-03-13T03:38:46.770Z,81.72
2023-03-13T03:39:48.675Z,81.67
2023-03-13T03:40:50.651Z,81.66
2023-03-13T03:41:52.517Z,81.12
2023-03-13T03:42:54.391Z,81.01
2023-03-13T03:43:56.589Z,80.83
2023-03-13T03:44:58.586Z,80.85
2023-03-13T03:46:02.627Z,80.54
2023-03-13T03:47:04.909Z,80.54
2023-03-13T03:48:06.890Z,80.11
2023-03-13T03:49:08.922Z,80.33
2023-03-13T03:50:11.085Z,80.08
2023-03-13T03:51:13.821Z,80.02
2023-03-13T03:52:15.711Z,79.79
2023-03-13T03:53:17.701Z,79.96
2023-03-13T03:54:19.596Z,80.03
2023-03-13T03:55:21.466Z,79.83
2023-03-13T03:56:23.499Z,79.51
2023-03-13T03:57:25.414Z,79.56
2023-03-13T03:58:28.376Z,79.47
2023-03-13T03:59:30.756Z,79.26
2023-03-13T04:00:33.208Z,79.69
2023-03-13T04:01:35.241Z,79.86
2023-03-13T04:02:38.774Z,80.25
2023-03-13T04:03:40.875Z,80.46
2023-03-13T04:04:42.934Z,80.72
2023-03-13T04:05:44.802Z,80.64
2023-03-13T04:06:47.030Z,80.89
2023-03-13T04:07:49.012Z,81.20
2023-03-13T04:08:50.889Z,80.79
2023-03-13T04:09:52.755Z,80.38
2023-03-13T04:10:54.743Z,80.25
2023-03-13T04:11:56.632Z,80.26
2023-03-13T04:12:58.525Z,80.13
2023-03-13T04:14:00.408Z,80.27
2023-03-13T04:15:03.253Z,80.49
2023-03-13T04:16:10.888Z,80.82
2023-03-13T04:17:13.270Z,81.04
2023-03-13T04:18:15.262Z,80.90
2023-03-13T04:19:17.173Z,81.01
2023-03-13T04:20:19.390Z,81.05
2023-03-13T04:21:22.813Z,81.16
2023-03-13T04:22:25.127Z,81.16
2023-03-13T04:23:28.559Z,81.11
2023-03-13T04:24:31.847Z,81.08
2023-03-13T04:25:35.224Z,81.18
2023-03-13T04:26:37.380Z,81.10
2023-03-13T04:27:39.605Z,80.85
2023-03-13T04:28:41.599Z,80.95
2023-03-13T04:29:43.797Z,80.95
2023-03-13T04:30:45.976Z,81.02
2023-03-13T04:31:48.039Z,81.07
2023-03-13T04:32:50.052Z,81.06
2023-03-13T04:33:52.032Z,80.98
2023-03-13T04:34:53.966Z,80.91
2023-03-13T04:35:56.010Z,80.87
2023-03-13T04:36:58.668Z,81.16
2023-03-13T04:38:01.593Z,81.27
2023-03-13T04:39:03.991Z,81.39
2023-03-13T04:40:07.629Z,81.83
2023-03-13T04:41:09.854Z,82.27
2023-03-13T04:42:12.098Z,82.30
2023-03-13T04:43:14.569Z,82.27
2023-03-13T04:44:16.601Z,82.30
2023-03-13T04:45:19.933Z,82.44
2023-03-13T04:46:22.840Z,82.71
2023-03-13T04:47:24.986Z,82.97
2023-03-13T04:48:27.410Z,83.02
2023-03-13T04:49:29.778Z,83.07
2023-03-13T04:50:32.013Z,83.06
2023-03-13T04:51:34.029Z,83.20
2023-03-13T04:52:36.059Z,83.20
2023-03-13T04:53:38.673Z,83.58
2023-03-13T04:54:40.765Z,83.61
2023-03-13T04:55:43.303Z,83.76
2023-03-13T04:56:46.976Z,84.15
2023-03-13T04:57:49.239Z,84.28
2023-03-13T04:58:51.808Z,84.13
2023-03-13T04:59:53.722Z,84.23
2023-03-13T05:00:56.079Z,84.46
2023-03-13T05:01:58.111Z,84.27
2023-03-13T05:03:00.008Z,84.16
2023-03-13T05:04:02.938Z,83.91
2023-03-13T05:05:05.252Z,83.87
2023-03-13T05:06:08.998Z,83.97
2023-03-13T05:07:11.034Z,83.96
2023-03-13T05:08:13.227Z,84.37
2023-03-13T05:09:15.101Z,84.41
2023-03-13T05:10:17.415Z,84.53
2023-03-13T05:11:19.437Z,84.46
2023-03-13T05:12:21.446Z,84.17
2023-03-13T05:13:23.499Z,84.17
2023-03-13T05:14:26.760Z,84.21
2023-03-13T05:15:28.800Z,84.21
2023-03-13T05:16:31.040Z,84.06
2023-03-13T05:17:33.151Z,83.91
2023-03-13T05:18:35.104Z,83.77
2023-03-13T05:19:38.260Z,83.80
2023-03-13T05:20:40.471Z,83.85
2023-03-13T05:21:43.544Z,83.93
2023-03-13T05:22:45.588Z,83.96
2023-03-13T05:23:47.532Z,83.89
2023-03-13T05:24:49.407Z,83.76
2023-03-13T05:25:51.837Z,83.50
2023-03-13T05:26:54.685Z,83.39
2023-03-13T05:27:58.767Z,83.20
2023-03-13T05:29:01.273Z,83.28
2023-03-13T05:30:04.511Z,83.30
2023-03-13T05:31:06.612Z,83.32
2023-03-13T05:32:08.953Z,83.34
2023-03-13T05:33:11.105Z,83.87
2023-03-13T05:34:13.077Z,83.80
2023-03-13T05:35:14.966Z,83.84
2023-03-13T05:36:17.070Z,83.90
2023-03-13T05:37:19.216Z,83.99
2023-03-13T05:38:21.452Z,83.92
2023-03-13T05:39:23.844Z,83.87
2023-03-13T05:40:25.942Z,83.88
2023-03-13T05:41:27.841Z,83.96
2023-03-13T05:42:29.735Z,83.93
2023-03-13T05:43:31.732Z,83.89
2023-03-13T05:44:33.810Z,83.77
2023-03-13T05:45:36.926Z,84.09
2023-03-13T05:46:39.107Z,84.18
2023-03-13T05:47:41.405Z,84.04
2023-03-13T05:48:43.317Z,83.83
2023-03-13T05:49:45.185Z,84.35
2023-03-13T05:50:47.392Z,84.27
2023-03-13T05:51:49.878Z,84.13
2023-03-13T05:52:52.773Z,83.61
2023-03-13T05:53:54.671Z,83.33
2023-03-13T05:54:56.542Z,83.05
2023-03-13T05:55:58.479Z,83.40
2023-03-13T05:57:00.865Z,82.89
2023-03-13T05:58:02.974Z,82.86
2023-03-13T05:59:04.841Z,82.62
2023-03-13T06:00:09.781Z,82.57
2023-03-13T06:01:14.304Z,82.47
2023-03-13T06:02:16.266Z,82.20
2023-03-13T06:03:18.197Z,82.50
2023-03-13T06:04:20.574Z,82.56
2023-03-13T06:05:22.805Z,82.08
2023-03-13T06:06:24.865Z,81.36
2023-03-13T06:07:26.733Z,81.17
2023-03-13T06:08:29.069Z,81.07
2023-03-13T06:09:31.592Z,81.16
2023-03-13T06:10:33.874Z,80.37
2023-03-13T06:11:35.756Z,79.64
2023-03-13T06:12:38.420Z,79.40
2023-03-13T06:13:40.404Z,79.20
2023-03-13T06:14:42.481Z,78.65
2023-03-13T06:15:53.311Z,78.67
2023-03-13T06:16:56.259Z,78.22
2023-03-13T06:17:58.148Z,77.76
2023-03-13T06:19:00.142Z,77.45
2023-03-13T06:20:03.441Z,76.77
2023-03-13T06:21:05.647Z,76.57
2023-03-13T06:22:08.027Z,75.99
2023-03-13T06:23:10.312Z,75.91
2023-03-13T06:24:12.194Z,75.68
2023-03-13T06:25:14.650Z,75.66
2023-03-13T06:26:16.867Z,74.81
2023-03-13T06:27:18.856Z,74.97
2023-03-13T06:28:21.631Z,74.37
2023-03-13T06:29:23.768Z,73.65
2023-03-13T06:30:25.751Z,73.53
2023-03-13T06:31:27.835Z,74.38
2023-03-13T06:32:31.773Z,74.33
2023-03-13T06:33:34.227Z,73.70
2023-03-13T06:34:37.869Z,72.70
2023-03-13T06:35:55.311Z,72.69
2023-03-13T06:36:45.757Z,72.10
2023-03-13T06:37:47.752Z,72.64
2023-03-13T06:38:51.554Z,72.09
2023-03-13T06:39:53.624Z,71.80
2023-03-13T06:40:55.933Z,73.09
2023-03-13T06:41:58.428Z,72.18
2023-03-13T06:43:00.711Z,70.83
2023-03-13T06:44:03.454Z,71.28
2023-03-13T06:45:06.720Z,71.40
2023-03-13T06:46:18.139Z,70.85
2023-03-13T06:47:21.383Z,71.90
2023-03-13T06:48:23.413Z,71.67
2023-03-13T06:49:25.481Z,71.34
2023-03-13T06:50:28.046Z,71.33
2023-03-13T06:51:30.254Z,71.84
2023-03-13T06:52:43.181Z,71.33
2023-03-13T06:53:35.990Z,72.13
2023-03-13T06:54:37.893Z,72.56
2023-03-13T06:55:39.792Z,72.68
2023-03-13T06:56:42.144Z,73.01
2023-03-13T06:57:44.138Z,74.07
2023-03-13T06:58:47.395Z,73.79
2023-03-13T06:59:49.462Z,73.20
2023-03-13T07:00:51.516Z,73.45
2023-03-13T07:01:56.678Z,72.98
2023-03-13T07:02:58.764Z,72.87
2023-03-13T07:04:00.884Z,72.65
2023-03-13T07:05:03.967Z,72.95
2023-03-13T07:06:07.777Z,73.83
2023-03-13T07:07:13.193Z,73.34
2023-03-13T07:08:13.512Z,73.92
2023-03-13T07:09:16.780Z,73.78
2023-03-13T07:10:19.215Z,73.46
2023-03-13T07:11:21.497Z,73.99
2023-03-13T07:12:23.395Z,72.98
2023-03-13T07:13:26.317Z,72.68
2023-03-13T07:14:28.738Z,73.48
2023-03-13T07:15:31.981Z,73.00
2023-03-13T07:16:34.231Z,72.68
2023-03-13T07:17:36.961Z,73.56
2023-03-13T07:18:40.274Z,73.21
2023-03-13T07:19:42.709Z,73.13
2023-03-13T07:20:47.398Z,73.94
2023-03-13T07:21:49.316Z,74.01
2023-03-13T07:22:52.978Z,73.03
2023-03-13T07:23:55.017Z,72.76
2023-03-13T07:24:57.046Z,72.58
2023-03-13T07:26:01.934Z,72.24
2023-03-13T07:27:07.516Z,71.96
2023-03-13T07:28:07.740Z,72.32
2023-03-13T07:29:09.928Z,71.67
2023-03-13T07:30:14.020Z,71.81
2023-03-13T07:31:20.537Z,71.99
2023-03-13T07:32:22.811Z,71.63
2023-03-13T07:33:24.831Z,71.55
2023-03-13T07:34:26.725Z,70.88
2023-03-13T07:35:28.960Z,69.97
2023-03-13T07:36:31.039Z,70.31
2023-03-13T07:37:33.157Z,71.15
2023-03-13T07:38:35.131Z,70.16
2023-03-13T07:39:37.084Z,69.98
2023-03-13T07:40:39.310Z,70.91
2023-03-13T07:41:41.350Z,69.84
2023-03-13T07:42:43.251Z,70.58
2023-03-13T07:43:46.794Z,70.06
2023-03-13T07:44:48.759Z,70.74
2023-03-13T07:45:57.242Z,69.93
2023-03-13T07:47:00.684Z,69.75
2023-03-13T07:48:02.858Z,70.64
2023-03-13T07:49:04.823Z,70.04
2023-03-13T07:50:08.728Z,69.61
2023-03-13T07:51:17.312Z,67.97
2023-03-13T07:52:19.420Z,66.10
2023-03-13T07:53:23.034Z,66.41
2023-03-13T07:54:25.484Z,66.11
2023-03-13T07:55:27.444Z,67.03
2023-03-13T07:56:29.427Z,66.75
2023-03-13T07:57:31.309Z,66.91
2023-03-13T07:58:35.751Z,66.33
2023-03-13T07:59:37.749Z,66.34
2023-03-13T08:00:39.733Z,65.67
2023-03-13T08:01:41.970Z,65.09
2023-03-13T08:02:43.941Z,64.95
2023-03-13T08:03:46.628Z,64.54
2023-03-13T08:06:03.163Z,66.00
2023-03-13T08:07:09.380Z,65.93
2023-03-13T08:08:11.471Z,66.17
2023-03-13T08:09:14.765Z,66.19
2023-03-13T08:10:17.053Z,65.82
2023-03-13T08:11:21.368Z,67.02
2023-03-13T08:12:23.327Z,66.70
2023-03-13T08:13:25.203Z,66.33
2023-03-13T08:14:27.286Z,65.52
2023-03-13T08:15:29.588Z,65.45
2023-03-13T08:16:33.668Z,65.25
2023-03-13T08:17:35.833Z,65.00
2023-03-13T08:18:40.617Z,64.64
2023-03-13T08:19:42.567Z,64.39
2023-03-13T08:20:45.713Z,64.40
2023-03-13T08:21:47.767Z,64.27
2023-03-13T08:22:52.123Z,64.96
2023-03-13T08:23:56.522Z,64.74
2023-03-13T08:24:58.458Z,64.58
2023-03-13T08:26:11.997Z,65.17
2023-03-13T08:27:13.950Z,65.36
2023-03-13T08:28:15.801Z,65.84
2023-03-13T08:29:18.963Z,65.53
2023-03-13T08:30:21.361Z,65.54
2023-03-13T08:32:37.790Z,65.16
2023-03-13T08:33:42.547Z,64.81
2023-03-13T08:34:44.740Z,65.31
2023-03-13T08:35:47.658Z,64.67
2023-03-13T08:36:49.835Z,65.79
2023-03-13T08:37:51.791Z,65.11
2023-03-13T08:38:55.213Z,64.30
2023-03-13T08:39:57.143Z,65.30
2023-03-13T08:40:59.136Z,64.59
2023-03-13T08:42:01.013Z,64.87
2023-03-13T08:43:02.959Z,64.52
2023-03-13T08:44:05.343Z,65.02
2023-03-13T08:45:08.999Z,66.21
2023-03-13T08:46:11.526Z,64.96
2023-03-13T08:47:14.007Z,64.46
2023-03-13T08:48:16.561Z,65.03
2023-03-13T08:49:18.484Z,65.79
2023-03-13T08:50:20.460Z,65.10
2023-03-13T08:51:25.018Z,65.40
2023-03-13T08:52:27.045Z,65.51
2023-03-13T08:53:30.401Z,64.72
2023-03-13T08:54:33.803Z,65.48
2023-03-13T08:55:35.772Z,65.46
2023-03-13T08:56:38.153Z,64.86
2023-03-13T08:57:40.090Z,64.97
2023-03-13T08:58:47.616Z,65.30
2023-03-13T08:59:51.345Z,64.58
2023-03-13T09:00:55.856Z,63.84
2023-03-13T09:01:59.604Z,64.85
2023-03-13T09:03:02.754Z,63.36
2023-03-13T09:04:08.513Z,63.56
2023-03-13T09:05:10.578Z,63.86
2023-03-13T09:06:13.898Z,64.03
2023-03-13T09:07:15.808Z,64.24
2023-03-13T09:08:17.683Z,64.28
2023-03-13T09:09:19.602Z,64.37
2023-03-13T09:10:21.572Z,64.98
2023-03-13T09:11:24.106Z,64.41
2023-03-13T09:12:31.196Z,64.06
2023-03-13T09:13:33.660Z,63.71
2023-03-13T09:14:36.784Z,63.04
2023-03-13T09:15:38.954Z,63.76
2023-03-13T09:16:40.921Z,63.02
2023-03-13T09:17:42.784Z,63.64
2023-03-13T09:18:45.822Z,63.25
2023-03-13T09:19:59.719Z,63.20
2023-03-13T09:20:52.425Z,63.67
2023-03-13T09:21:54.407Z,63.47
2023-03-13T09:22:56.304Z,62.61
2023-03-13T09:23:59.120Z,63.36
2023-03-13T09:25:01.028Z,63.51
2023-03-13T09:26:04.780Z,63.09
2023-03-13T09:27:06.690Z,62.56
2023-03-13T09:28:09.456Z,62.32
2023-03-13T09:29:11.684Z,62.16
2023-03-13T09:30:14.780Z,62.41
2023-03-13T09:31:19.773Z,63.62
2023-03-13T09:32:22.053Z,62.74
2023-03-13T09:33:24.078Z,62.24
2023-03-13T09:34:26.097Z,61.84
2023-03-13T09:35:28.267Z,62.65
2023-03-13T09:36:30.433Z,61.79
2023-03-13T09:37:32.363Z,62.62
2023-03-13T09:38:35.146Z,62.53
2023-03-13T09:39:37.261Z,61.74
2023-03-13T09:40:56.470Z,60.80
2023-03-13T09:41:52.609Z,60.55
2023-03-13T09:42:58.036Z,60.30
2023-03-13T09:44:03.747Z,60.83
2023-03-13T09:45:09.503Z,60.72
2023-03-13T09:46:27.653Z,60.17
2023-03-13T09:47:39.996Z,60.95
2023-03-13T09:48:51.465Z,60.79
2023-03-13T09:50:01.112Z,60.71
2023-03-13T09:51:25.223Z,60.99
2023-03-13T09:52:36.614Z,61.14
2023-03-13T09:53:48.325Z,60.61
2023-03-13T09:55:02.783Z,60.48
2023-03-13T09:56:08.767Z,60.19
2023-03-13T09:57:26.490Z,59.54
2023-03-13T09:58:31.311Z,59.15
2023-03-13T09:59:43.240Z,59.55
2023-03-13T10:00:49.221Z,59.89
2023-03-13T10:01:54.795Z,59.93
2023-03-13T10:03:12.597Z,59.91
2023-03-13T10:04:21.303Z,60.53
2023-03-13T10:05:29.014Z,60.11
2023-03-13T10:06:37.868Z,59.70
2023-03-13T10:07:40.440Z,58.30
2023-03-13T10:08:42.396Z,59.50
2023-03-13T10:09:44.447Z,60.05
2023-03-13T10:11:02.198Z,59.22
2023-03-13T10:12:14.870Z,59.43
2023-03-13T10:14:41.329Z,59.00
2023-03-13T10:15:55.719Z,59.05
2023-03-13T10:17:07.383Z,58.80
2023-03-13T10:18:14.481Z,59.27
2023-03-13T10:19:28.647Z,59.41
2023-03-13T10:20:36.365Z,59.60
2023-03-13T10:21:41.050Z,58.94
2023-03-13T10:22:46.744Z,59.26
2023-03-13T10:23:55.217Z,59.07
2023-03-13T10:25:09.880Z,59.38
2023-03-13T10:26:18.449Z,60.05
2023-03-13T10:27:20.524Z,59.91
2023-03-13T10:28:22.705Z,59.28
2023-03-13T10:29:27.258Z,59.58
2023-03-13T10:30:34.411Z,58.74
2023-03-13T10:31:37.958Z,57.68
2023-03-13T10:32:40.977Z,57.91
2023-03-13T10:33:43.962Z,58.43
2023-03-13T10:34:55.405Z,59.05
2023-03-13T10:36:13.206Z,58.34
2023-03-13T10:37:18.940Z,58.34
2023-03-13T10:38:23.494Z,57.53
2023-03-13T10:39:28.418Z,57.53
2023-03-13T10:40:30.617Z,57.39
2023-03-13T10:41:37.423Z,57.33
2023-03-13T10:42:45.168Z,58.12
2023-03-13T10:45:05.375Z,58.21
2023-03-13T10:46:09.734Z,58.34
2023-03-13T10:47:14.365Z,57.68
2023-03-13T10:48:24.273Z,57.50
2023-03-13T10:49:26.986Z,58.18
2023-03-13T10:50:34.188Z,58.37
2023-03-13T10:51:38.859Z,58.13
2023-03-13T10:52:46.073Z,57.87
2023-03-13T10:53:48.543Z,58.04
2023-03-13T10:54:52.368Z,57.96
2023-03-13T10:56:00.220Z,57.26
2023-03-13T10:57:11.885Z,57.24
2023-03-13T10:58:29.374Z,57.73
2023-03-13T10:59:32.391Z,57.95
2023-03-13T11:00:37.607Z,57.96
2023-03-13T11:01:42.726Z,57.65
2023-03-13T11:02:45.617Z,57.33
2023-03-13T11:03:49.966Z,57.99
2023-03-13T11:04:53.228Z,57.47
2023-03-13T11:06:01.472Z,57.56
2023-03-13T11:07:16.184Z,58.23
2023-03-13T11:08:22.049Z,58.50
2023-03-13T11:09:24.242Z,58.50
2023-03-13T11:10:29.144Z,57.85
2023-03-13T11:11:34.857Z,58.47
2023-03-13T11:12:40.515Z,58.40
2023-03-13T11:13:44.003Z,58.28
2023-03-13T11:14:46.224Z,58.49
2023-03-13T11:15:54.938Z,58.56
2023-03-13T11:17:22.258Z,57.55
2023-03-13T11:18:30.941Z,57.78
2023-03-13T11:19:48.955Z,58.50
2023-03-13T11:20:51.674Z,58.29
2023-03-13T11:22:09.330Z,59.21
2023-03-13T11:23:21.033Z,58.48
2023-03-13T11:24:33.958Z,59.47
2023-03-13T11:25:45.077Z,59.17
2023-03-13T11:27:04.744Z,59.28
2023-03-13T11:28:05.986Z,58.92
2023-03-13T11:29:14.891Z,58.91
2023-03-13T11:30:22.396Z,58.69
2023-03-13T11:31:37.464Z,58.74
2023-03-13T11:32:48.817Z,58.38
2023-03-13T11:34:01.060Z,58.48
2023-03-13T11:35:06.967Z,59.01
2023-03-13T11:36:16.328Z,59.09
2023-03-13T11:37:21.639Z,59.30
2023-03-13T11:38:36.039Z,59.30
2023-03-13T11:40:13.714Z,59.59
2023-03-13T11:41:40.667Z,59.18
2023-03-13T11:42:58.615Z,58.66
2023-03-13T11:44:19.370Z,59.04
2023-03-13T11:45:58.740Z,59.10
2023-03-13T11:47:26.482Z,59.01
2023-03-13T11:48:50.442Z,58.58
2023-03-13T11:50:16.658Z,57.77
2023-03-13T11:51:25.558Z,58.03
2023-03-13T11:53:05.141Z,58.11
2023-03-13T11:54:43.554Z,57.90
2023-03-13T11:55:52.299Z,57.68
2023-03-13T11:58:26.249Z,57.92
2023-03-13T11:59:44.691Z,57.61
2023-03-13T12:01:08.913Z,57.85
2023-03-13T12:02:30.183Z,57.98
2023-03-13T12:03:55.968Z,57.59
2023-03-13T12:05:01.938Z,57.77
2023-03-13T12:06:13.272Z,57.56
2023-03-13T12:07:18.185Z,57.77
2023-03-13T12:08:42.290Z,57.63
2023-03-13T12:09:50.075Z,56.90
2023-03-13T12:11:12.712Z,56.19
2023-03-13T12:12:35.263Z,55.36
2023-03-13T12:13:41.302Z,55.29
2023-03-13T12:15:58.332Z,55.43
2023-03-13T12:17:10.052Z,55.40
2023-03-13T12:18:30.883Z,55.70
2023-03-13T12:19:42.580Z,55.71
2023-03-13T12:20:57.974Z,55.06
2023-03-13T12:22:03.737Z,55.06
2023-03-13T12:23:21.588Z,55.65
2023-03-13T12:24:39.288Z,55.48
2023-03-13T12:25:53.623Z,55.36
2023-03-13T12:28:25.626Z,55.53
2023-03-13T12:30:00.783Z,54.52
2023-03-13T12:31:08.922Z,54.83
2023-03-13T12:33:33.731Z,54.68
2023-03-13T12:34:51.712Z,54.68
2023-03-13T12:36:00.416Z,54.34
2023-03-13T12:37:33.089Z,54.77
2023-03-13T12:38:52.022Z,54.88
2023-03-13T12:40:17.610Z,54.40
2023-03-13T12:41:35.068Z,54.40
2023-03-13T12:42:48.689Z,54.71
2023-03-13T12:44:09.254Z,54.28
2023-03-13T12:44:59.167Z,54.58
2023-03-13T12:46:31.590Z,54.60
2023-03-13T12:47:49.572Z,54.20
2023-03-13T12:48:58.226Z,53.96
2023-03-13T12:50:22.011Z,54.44
2023-03-13T12:51:44.458Z,54.44
2023-03-13T12:53:21.045Z,54.66
2023-03-13T12:56:03.596Z,54.49
2023-03-13T12:57:44.705Z,54.32
2023-03-13T12:58:53.546Z,54.50
2023-03-13T13:00:01.463Z,54.75
2023-03-13T13:01:06.229Z,53.77
2023-03-13T13:02:14.958Z,54.42
2023-03-13T13:03:23.420Z,54.49
2023-03-13T13:04:35.068Z,54.47
2023-03-13T13:05:37.570Z,54.35
2023-03-13T13:06:55.631Z,55.08
2023-03-13T13:07:57.893Z,55.08
2023-03-13T13:09:09.403Z,55.64
2023-03-13T13:10:15.312Z,55.51
2023-03-13T13:11:40.728Z,55.64
2023-03-13T13:12:50.523Z,55.66
2023-03-13T13:13:52.579Z,55.97
2023-03-13T13:15:01.205Z,56.47
2023-03-13T13:16:10.282Z,55.96
2023-03-13T13:17:19.110Z,56.31
2023-03-13T13:18:27.484Z,56.00
2023-03-13T13:19:44.687Z,56.14
2023-03-13T13:20:48.754Z,56.90
2023-03-13T13:22:29.129Z,56.24
2023-03-13T13:23:43.060Z,56.79
2023-03-13T13:24:50.796Z,56.37
2023-03-13T13:25:56.475Z,56.41
2023-03-13T13:27:00.765Z,56.37
2023-03-13T13:28:18.231Z,55.36
2023-03-13T13:29:23.924Z,55.17
2023-03-13T13:30:32.261Z,55.18
2023-03-13T13:31:50.479Z,55.25
2023-03-13T13:32:58.155Z,55.45
2023-03-13T13:34:00.451Z,55.86
2023-03-13T13:35:05.653Z,55.65
2023-03-13T13:36:12.551Z,55.67
2023-03-13T13:37:21.951Z,55.61
2023-03-13T13:38:29.866Z,54.91
2023-03-13T13:39:38.568Z,54.29
2023-03-13T13:41:02.824Z,54.29
2023-03-13T13:42:31.629Z,53.94
2023-03-13T13:43:41.489Z,54.60
2023-03-13T13:45:01.084Z,54.79
2023-03-13T13:46:32.586Z,54.70
2023-03-13T13:47:34.977Z,54.56
2023-03-13T13:48:37.885Z,54.02
2023-03-13T13:51:03.671Z,54.03
2023-03-13T13:52:09.382Z,53.96
2023-03-13T13:53:29.626Z,53.75
2023-03-13T13:54:47.595Z,54.38
2023-03-13T13:55:49.831Z,54.80
2023-03-13T13:58:22.538Z,54.66
2023-03-13T13:59:44.970Z,55.29
2023-03-13T14:01:02.665Z,55.05
2023-03-13T14:02:10.165Z,55.01
2023-03-13T14:03:22.431Z,55.01
2023-03-13T14:04:31.117Z,54.80
2023-03-13T14:05:34.553Z,55.78
2023-03-13T14:06:38.832Z,55.67
2023-03-13T14:07:44.538Z,56.47
2023-03-13T14:08:50.056Z,56.22
2023-03-13T14:09:59.520Z,55.68
2023-03-13T14:11:17.539Z,56.17
2023-03-13T14:12:35.099Z,56.94
2023-03-13T14:13:37.136Z,56.94
2023-03-13T14:14:39.049Z,56.84
2023-03-13T14:15:43.877Z,56.66
2023-03-13T14:16:49.416Z,56.57
2023-03-13T14:17:57.306Z,56.44
2023-03-13T14:18:59.235Z,56.92
2023-03-13T14:20:01.845Z,56.87
2023-03-13T14:21:06.553Z,56.83